Peary Spirit — C6YM3 — position and weather

sailwx.info

Track history (hours):
 
Tides and Currents Weather Stations Pressure Air Temp Water Temp Dewpoint Dewpoint Depression Visibility Wind Speed Wind Dir Waves Ship Positions

Peary Spirit

Last reported at 2015-May-22 12:32 UTC. Time now 2015-May-24 05:16 UTC.
Position N 54°22' E 004°26'.

Length 249 m; draft 9.4 m.

Type: Tanker. MMSI: 311027600.

Date/timePositionNaut miles runAvg speedWind from/ knotsBaromVisibWave heightAir tempDewpointWater temp
2015-May-22 12:32N 54°22' E 004°26'4 3.7
2015-May-22 11:33N 54°19' E 004°28'7 7.3
2015-May-22 10:34N 54°13' E 004°33'9 8.7
2015-May-22 09:33N 54°04' E 004°39'1211.6
2015-May-22 08:33N 53°53' E 004°33'1514.9
2015-May-22 07:31N 53°43' E 004°14'5513.8
2015-May-22 03:33N 52°58' E 003°22'1211.8
2015-May-22 02:33N 52°47' E 003°13'1111.2
2015-May-22 01:34N 52°37' E 003°05'18 8.3
2015-May-21 23:27N 52°20' E 003°13'1010.8
2015-May-21 22:33N 52°13' E 003°24'1111.4
2015-May-21 21:33N 52°06' E 003°39'1110.9
2015-May-21 20:33N 52°03' E 003°55'7 7.2
2015-May-21 19:33N 51°58' E 004°04'0 0.0
2015-May-21 18:33N 51°58' E 004°04'0 0.0
2015-May-21 17:33N 51°58' E 004°04'0 0.0
2015-May-21 16:33N 51°58' E 004°04'0 0.0
2015-May-21 15:33N 51°58' E 004°04'0 0.0
2015-May-21 14:33N 51°58' E 004°04'0 0.0
2015-May-21 13:33N 51°58' E 004°04'0 0.0
2015-May-21 12:33N 51°58' E 004°04'0 0.0
2015-May-21 11:33N 51°58' E 004°04'0 0.0
2015-May-21 10:33N 51°58' E 004°04'0 0.0
2015-May-21 09:33N 51°58' E 004°04'0 0.0
2015-May-21 08:33N 51°58' E 004°04'0 0.0
2015-May-21 07:33N 51°58' E 004°04'0 0.0
2015-May-21 06:33N 51°58' E 004°04'0 0.0
2015-May-21 05:33N 51°58' E 004°04'0 0.0
2015-May-21 04:33N 51°58' E 004°04'0 0.0
2015-May-21 03:33N 51°58' E 004°04'0 0.0
2015-May-21 02:33N 51°58' E 004°04'0 0.0
2015-May-21 01:33N 51°58' E 004°04'0 0.0
2015-May-21 00:33N 51°58' E 004°04'0 0.0
2015-May-20 23:33N 51°58' E 004°04'0 0.0
2015-May-20 22:33N 51°58' E 004°04'0 0.0
2015-May-20 21:33N 51°58' E 004°04'0 0.0
2015-May-20 20:33N 51°58' E 004°04'0 0.0
2015-May-20 19:33N 51°58' E 004°04'0 0.0
2015-May-20 18:33N 51°58' E 004°04'0 0.0
2015-May-20 17:33N 51°58' E 004°04'0 0.0
2015-May-20 16:33N 51°58' E 004°04'2 2.5
2015-May-20 15:33N 51°60' E 004°01'1312.6
2015-May-20 14:33N 51°58' E 003°41'1312.8
2015-May-20 13:33N 51°55' E 003°21'6 0.4
2015-May-20 00:26N 51°56' E 003°12'0 0.0
2015-May-19 10:29N 51°56' E 003°12'0 0.1
2015-May-19 07:08N 51°56' E 003°12'0 0.0
2015-May-18 10:26N 51°56' E 003°12'0 0.0
2015-May-18 00:29N 51°56' E 003°12'0 0.0
2015-May-17 23:29N 51°56' E 003°12'0 0.2
2015-May-17 22:20N 51°56' E 003°12'0 0.0
2015-May-17 17:23N 51°56' E 003°12'0 0.0
2015-May-17 13:05N 51°56' E 003°12'0 0.0
2015-May-17 12:26N 51°56' E 003°12'0 0.1
2015-May-17 11:26N 51°56' E 003°12'0 0.1
2015-May-17 08:20N 51°56' E 003°12'0 0.0
2015-May-17 07:29N 51°56' E 003°12'0 0.0
2015-May-17 06:29N 51°56' E 003°12'0 0.1
2015-May-17 05:32N 51°56' E 003°11'0 0.1
2015-May-17 04:29N 51°56' E 003°12'0 0.0
2015-May-17 03:32N 51°56' E 003°12'0 0.0
2015-May-17 02:17N 51°56' E 003°12'0 0.0
2015-May-17 01:32N 51°56' E 003°12'0 0.0
2015-May-17 00:17N 51°56' E 003°12'0 0.0
2015-May-16 23:23N 51°56' E 003°12'0 0.1
2015-May-16 22:26N 51°56' E 003°12'0 0.2
2015-May-16 21:26N 51°56' E 003°12'0 0.0
2015-May-16 17:28N 51°56' E 003°12'0 0.1
2015-May-16 15:26N 51°56' E 003°12'0 0.0
2015-May-16 09:12N 51°56' E 003°12'0 0.0
2015-May-16 03:26N 51°56' E 003°12'0 0.0
2015-May-16 02:28N 51°56' E 003°12'0 0.0
2015-May-16 00:09N 51°56' E 003°12'0 0.0
2015-May-15 23:24N 51°56' E 003°12'0 0.0
2015-May-15 22:14N 51°56' E 003°12'0 0.0
2015-May-15 17:28N 51°56' E 003°11'0 0.0
2015-May-15 15:32N 51°56' E 003°11'0 0.2
2015-May-15 14:26N 51°56' E 003°12'0 0.0
2015-May-15 13:26N 51°56' E 003°12'0 0.0
2015-May-15 12:29N 51°56' E 003°12'0 0.0
2015-May-15 11:23N 51°56' E 003°12'0 0.1
2015-May-15 09:11N 51°56' E 003°12'0 0.1
2015-May-15 08:20N 51°56' E 003°12'0 0.0
2015-May-15 05:11N 51°56' E 003°12'0 0.0
2015-May-14 19:05N 51°56' E 003°12'0 0.0
2015-May-14 18:19N 51°56' E 003°12'0 0.0
2015-May-14 17:27N 51°56' E 003°12'0 0.0
2015-May-14 05:26N 51°56' E 003°12'0 0.0
2015-May-13 23:14N 51°56' E 003°12'0 0.0
2015-May-13 22:26N 51°56' E 003°12'0 0.0
2015-May-13 21:26N 51°56' E 003°12'0 0.1
2015-May-13 20:32N 51°56' E 003°12'0 0.2
2015-May-13 19:26N 51°56' E 003°12'0 0.1
2015-May-13 18:32N 51°56' E 003°12'0 0.0
2015-May-13 17:17N 51°56' E 003°12'0 0.0
2015-May-13 16:29N 51°56' E 003°12'0 0.0
2015-May-13 15:26N 51°56' E 003°12'0 0.0
2015-May-13 14:29N 51°56' E 003°12'0 0.1
2015-May-13 12:32N 51°56' E 003°12'0 0.0
2015-May-13 11:11N 51°56' E 003°12'0 0.0
2015-May-13 08:32N 51°56' E 003°12'0 0.1
2015-May-13 07:26N 51°56' E 003°12'0 0.1
2015-May-13 06:23N 51°56' E 003°12'0 0.1
2015-May-13 05:32N 51°56' E 003°12'0 0.0
2015-May-13 04:08N 51°56' E 003°12'0 0.0
2015-May-13 03:32N 51°56' E 003°12'0 0.0
2015-May-13 02:32N 51°56' E 003°12'0 0.2
2015-May-13 01:28N 51°56' E 003°12'0 0.1
2015-May-13 00:29N 51°56' E 003°12'0 0.1
2015-May-12 23:20N 51°56' E 003°12'0 0.0
2015-May-12 22:26N 51°56' E 003°12'0 0.0
2015-May-12 21:28N 51°56' E 003°12'0 0.0
2015-May-12 20:26N 51°56' E 003°12'0 0.0
2015-May-12 19:32N 51°56' E 003°12'0 0.0
2015-May-12 18:29N 51°56' E 003°12'0 0.1
2015-May-12 17:32N 51°56' E 003°12'0 0.1
2015-May-12 16:32N 51°56' E 003°12'0 0.0
2015-May-12 15:18N 51°56' E 003°12'0 0.0
2015-May-12 14:24N 51°56' E 003°12'0 0.0
2015-May-12 13:20N 51°56' E 003°12'  
Track history (hours):
 
Tides and Currents Weather Stations Pressure Air Temp Water Temp Dewpoint Dewpoint Depression Visibility Wind Speed Wind Dir Waves Ship Positions

Peary Spirit

Last reported at 2015-May-22 12:32 UTC. Time now 2015-May-24 05:16 UTC.
Position N 54°22' E 004°26'.

Length 249 m; draft 9.4 m.

Type: Tanker. MMSI: 311027600.

Date/timePositionNaut miles runAvg speedWind from/ knotsBaromVisibWave heightAir tempDewpointWater temp
2015-May-22 12:32N 54°22' E 004°26'4 3.7
2015-May-22 11:33N 54°19' E 004°28'7 7.3
2015-May-22 10:34N 54°13' E 004°33'9 8.7
2015-May-22 09:33N 54°04' E 004°39'1211.6
2015-May-22 08:33N 53°53' E 004°33'1514.9
2015-May-22 07:31N 53°43' E 004°14'5513.8
2015-May-22 03:33N 52°58' E 003°22'1211.8
2015-May-22 02:33N 52°47' E 003°13'1111.2
2015-May-22 01:34N 52°37' E 003°05'18 8.3
2015-May-21 23:27N 52°20' E 003°13'1010.8
2015-May-21 22:33N 52°13' E 003°24'1111.4
2015-May-21 21:33N 52°06' E 003°39'1110.9
2015-May-21 20:33N 52°03' E 003°55'7 7.2
2015-May-21 19:33N 51°58' E 004°04'0 0.0
2015-May-21 18:33N 51°58' E 004°04'0 0.0
2015-May-21 17:33N 51°58' E 004°04'0 0.0
2015-May-21 16:33N 51°58' E 004°04'0 0.0
2015-May-21 15:33N 51°58' E 004°04'0 0.0
2015-May-21 14:33N 51°58' E 004°04'0 0.0
2015-May-21 13:33N 51°58' E 004°04'0 0.0
2015-May-21 12:33N 51°58' E 004°04'0 0.0
2015-May-21 11:33N 51°58' E 004°04'0 0.0
2015-May-21 10:33N 51°58' E 004°04'0 0.0
2015-May-21 09:33N 51°58' E 004°04'0 0.0
2015-May-21 08:33N 51°58' E 004°04'0 0.0
2015-May-21 07:33N 51°58' E 004°04'0 0.0
2015-May-21 06:33N 51°58' E 004°04'0 0.0
2015-May-21 05:33N 51°58' E 004°04'0 0.0
2015-May-21 04:33N 51°58' E 004°04'0 0.0
2015-May-21 03:33N 51°58' E 004°04'0 0.0
2015-May-21 02:33N 51°58' E 004°04'0 0.0
2015-May-21 01:33N 51°58' E 004°04'0 0.0
2015-May-21 00:33N 51°58' E 004°04'0 0.0
2015-May-20 23:33N 51°58' E 004°04'0 0.0
2015-May-20 22:33N 51°58' E 004°04'0 0.0
2015-May-20 21:33N 51°58' E 004°04'0 0.0
2015-May-20 20:33N 51°58' E 004°04'0 0.0
2015-May-20 19:33N 51°58' E 004°04'0 0.0
2015-May-20 18:33N 51°58' E 004°04'0 0.0
2015-May-20 17:33N 51°58' E 004°04'0 0.0
2015-May-20 16:33N 51°58' E 004°04'2 2.5
2015-May-20 15:33N 51°60' E 004°01'1312.6
2015-May-20 14:33N 51°58' E 003°41'1312.8
2015-May-20 13:33N 51°55' E 003°21'6 0.4
2015-May-20 00:26N 51°56' E 003°12'0 0.0
2015-May-19 10:29N 51°56' E 003°12'0 0.1
2015-May-19 07:08N 51°56' E 003°12'0 0.0
2015-May-18 10:26N 51°56' E 003°12'0 0.0
2015-May-18 00:29N 51°56' E 003°12'0 0.0
2015-May-17 23:29N 51°56' E 003°12'0 0.2
2015-May-17 22:20N 51°56' E 003°12'0 0.0
2015-May-17 17:23N 51°56' E 003°12'0 0.0
2015-May-17 13:05N 51°56' E 003°12'0 0.0
2015-May-17 12:26N 51°56' E 003°12'0 0.1
2015-May-17 11:26N 51°56' E 003°12'0 0.1
2015-May-17 08:20N 51°56' E 003°12'0 0.0
2015-May-17 07:29N 51°56' E 003°12'0 0.0
2015-May-17 06:29N 51°56' E 003°12'0 0.1
2015-May-17 05:32N 51°56' E 003°11'0 0.1
2015-May-17 04:29N 51°56' E 003°12'0 0.0
2015-May-17 03:32N 51°56' E 003°12'0 0.0
2015-May-17 02:17N 51°56' E 003°12'0 0.0
2015-May-17 01:32N 51°56' E 003°12'0 0.0
2015-May-17 00:17N 51°56' E 003°12'0 0.0
2015-May-16 23:23N 51°56' E 003°12'0 0.1
2015-May-16 22:26N 51°56' E 003°12'0 0.2
2015-May-16 21:26N 51°56' E 003°12'0 0.0
2015-May-16 17:28N 51°56' E 003°12'0 0.1
2015-May-16 15:26N 51°56' E 003°12'0 0.0
2015-May-16 09:12N 51°56' E 003°12'0 0.0
2015-May-16 03:26N 51°56' E 003°12'0 0.0
2015-May-16 02:28N 51°56' E 003°12'0 0.0
2015-May-16 00:09N 51°56' E 003°12'0 0.0
2015-May-15 23:24N 51°56' E 003°12'0 0.0
2015-May-15 22:14N 51°56' E 003°12'0 0.0
2015-May-15 17:28N 51°56' E 003°11'0 0.0
2015-May-15 15:32N 51°56' E 003°11'0 0.2
2015-May-15 14:26N 51°56' E 003°12'0 0.0
2015-May-15 13:26N 51°56' E 003°12'0 0.0
2015-May-15 12:29N 51°56' E 003°12'0 0.0
2015-May-15 11:23N 51°56' E 003°12'0 0.1
2015-May-15 09:11N 51°56' E 003°12'0 0.1
2015-May-15 08:20N 51°56' E 003°12'0 0.0
2015-May-15 05:11N 51°56' E 003°12'0 0.0
2015-May-14 19:05N 51°56' E 003°12'0 0.0
2015-May-14 18:19N 51°56' E 003°12'0 0.0
2015-May-14 17:27N 51°56' E 003°12'0 0.0
2015-May-14 05:26N 51°56' E 003°12'0 0.0
2015-May-13 23:14N 51°56' E 003°12'0 0.0
2015-May-13 22:26N 51°56' E 003°12'0 0.0
2015-May-13 21:26N 51°56' E 003°12'0 0.1
2015-May-13 20:32N 51°56' E 003°12'0 0.2
2015-May-13 19:26N 51°56' E 003°12'0 0.1
2015-May-13 18:32N 51°56' E 003°12'0 0.0
2015-May-13 17:17N 51°56' E 003°12'0 0.0
2015-May-13 16:29N 51°56' E 003°12'0 0.0
2015-May-13 15:26N 51°56' E 003°12'0 0.0
2015-May-13 14:29N 51°56' E 003°12'0 0.1
2015-May-13 12:32N 51°56' E 003°12'0 0.0
2015-May-13 11:11N 51°56' E 003°12'0 0.0
2015-May-13 08:32N 51°56' E 003°12'0 0.1
2015-May-13 07:26N 51°56' E 003°12'0 0.1
2015-May-13 06:23N 51°56' E 003°12'0 0.1
2015-May-13 05:32N 51°56' E 003°12'0 0.0
2015-May-13 04:08N 51°56' E 003°12'0 0.0
2015-May-13 03:32N 51°56' E 003°12'0 0.0
2015-May-13 02:32N 51°56' E 003°12'0 0.2
2015-May-13 01:28N 51°56' E 003°12'0 0.1
2015-May-13 00:29N 51°56' E 003°12'0 0.1
2015-May-12 23:20N 51°56' E 003°12'0 0.0
2015-May-12 22:26N 51°56' E 003°12'0 0.0
2015-May-12 21:28N 51°56' E 003°12'0 0.0
2015-May-12 20:26N 51°56' E 003°12'0 0.0
2015-May-12 19:32N 51°56' E 003°12'0 0.0
2015-May-12 18:29N 51°56' E 003°12'0 0.1
2015-May-12 17:32N 51°56' E 003°12'0 0.1
2015-May-12 16:32N 51°56' E 003°12'0 0.0
2015-May-12 15:18N 51°56' E 003°12'0 0.0
2015-May-12 14:24N 51°56' E 003°12'0 0.0
2015-May-12 13:20N 51°56' E 003°12'  

Dump ship's entire track history